Time;durP1;ratioP1;P1;durP2;ratioP2;P2;SDS_P1;SDS_P2;PMS_P1;PMS_P2;Temp;Humidity;BMP_temperature;BMP_pressure;BME280_temperature;BME280_humidity;BME280_pressure;Samples;Min_cycle;Max_cycle;Signal;HPM_P1;HPM_P2
2021/07/19 00:00:13;;;;;;;15.10;13.40;;;;;;;;;;5031159;28;20493;-69
2021/07/19 00:02:39;;;;;;;14.38;12.90;;;;;;;;;;5031199;28;20025;-68
2021/07/19 00:05:05;;;;;;;15.27;13.68;;;;;;;;;;5032231;28;20430;-69
2021/07/19 00:07:32;;;;;;;19.88;15.02;;;;;;;;;;5031231;28;20021;-70
2021/07/19 00:09:58;;;;;;;17.77;12.40;;;;;;;;;;5032909;28;20553;-69
2021/07/19 00:12:24;;;;;;;17.63;13.45;;;;;;;;;;5036059;28;20128;-69
2021/07/19 00:14:51;;;;;;;19.17;13.45;;;;;;;;;;5036030;28;20100;-70
2021/07/19 00:17:18;;;;;;;16.58;12.85;;;;;;;;;;5034794;28;20148;-69
2021/07/19 00:19:46;;;;;;;13.77;11.93;;;;;;;;;;5035859;28;20036;-70
2021/07/19 00:22:13;;;;;;;15.73;11.90;;;;;;;;;;5034892;28;20413;-70
2021/07/19 00:24:39;;;;;;;14.05;11.55;;;;;;;;;;5035831;28;20018;-69
2021/07/19 00:27:05;;;;;;;13.63;11.32;;;;;;;;;;5033976;28;20123;-70
2021/07/19 00:29:31;;;;;;;14.57;13.02;;;;;;;;;;5036036;28;20521;-71
2021/07/19 00:31:58;;;;;;;16.08;12.75;;;;;;;;;;5035978;28;20136;-69
2021/07/19 00:34:24;;;;;;;15.82;12.45;;;;;;;;;;5035360;28;20473;-70
2021/07/19 00:36:54;;;;;;;14.20;12.63;;;;;;;;;;5035791;28;20038;-70
2021/07/19 00:39:20;;;;;;;20.25;12.60;;;;;;;;;;5034203;28;20491;-70
2021/07/19 00:41:47;;;;;;;16.67;13.10;;;;;;;;;;5035528;28;20064;-71
2021/07/19 00:44:17;;;;;;;14.90;12.52;;;;;;;;;;5035549;28;20029;-69
2021/07/19 00:46:44;;;;;;;13.90;11.63;;;;;;;;;;5035561;28;20057;-69
2021/07/19 00:49:11;;;;;;;18.75;13.40;;;;;;;;;;5034115;28;20029;-70
2021/07/19 00:51:37;;;;;;;17.42;11.90;;;;;;;;;;5034040;28;20070;-71
2021/07/19 00:54:04;;;;;;;15.23;13.02;;;;;;;;;;5035324;28;20571;-70
2021/07/19 00:56:31;;;;;;;17.63;13.93;;;;;;;;;;5035340;28;20075;-69
2021/07/19 00:58:58;;;;;;;21.95;15.30;;;;;;;;;;5034828;28;20428;-69
2021/07/19 01:01:25;;;;;;;19.45;14.60;;;;;;;;;;5035491;28;20030;-71
2021/07/19 01:03:53;;;;;;;18.77;13.63;;;;;;;;;;5033809;28;20025;-71
2021/07/19 01:06:20;;;;;;;18.48;14.65;;;;;;;;;;5035151;28;20057;-71
2021/07/19 01:08:46;;;;;;;15.48;12.68;;;;;;;;;;5034984;28;20029;-71
2021/07/19 01:11:13;;;;;;;16.10;12.45;;;;;;;;;;5035002;28;20022;-71
2021/07/19 01:13:40;;;;;;;13.13;11.55;;;;;;;;;;5035201;28;20026;-70
2021/07/19 01:16:07;;;;;;;18.50;12.77;;;;;;;;;;5034895;28;20067;-71
2021/07/19 01:18:33;;;;;;;17.25;12.57;;;;;;;;;;5034788;28;20029;-70
2021/07/19 01:21:08;;;;;;;16.08;12.05;;;;;;;;;;5033249;28;20034;-70
2021/07/19 01:23:34;;;;;;;18.13;12.93;;;;;;;;;;5034584;28;20025;-72
2021/07/19 01:26:04;;;;;;;14.52;12.23;;;;;;;;;;5033459;28;20036;-68
2021/07/19 01:28:56;;;;;;;18.65;12.50;;;;;;;;;;5033241;28;20088;-70
2021/07/19 01:31:27;;;;;;;17.50;12.55;;;;;;;;;;5031661;28;20053;-69
2021/07/19 01:33:57;;;;;;;19.00;13.10;;;;;;;;;;5033290;28;20021;-71
2021/07/19 01:36:25;;;;;;;17.88;11.77;;;;;;;;;;5033499;28;20427;-72
2021/07/19 01:38:52;;;;;;;16.95;12.82;;;;;;;;;;5034161;28;20473;-69
2021/07/19 01:41:20;;;;;;;14.38;12.45;;;;;;;;;;5034711;28;20037;-68
2021/07/19 01:43:49;;;;;;;21.20;14.02;;;;;;;;;;5033111;28;20108;-70
2021/07/19 01:46:15;;;;;;;21.25;14.00;;;;;;;;;;5032690;28;20120;-69
2021/07/19 01:48:42;;;;;;;25.92;14.23;;;;;;;;;;5034276;28;20025;-69
2021/07/19 01:51:09;;;;;;;17.20;14.63;;;;;;;;;;5033978;28;20145;-69
2021/07/19 01:53:36;;;;;;;15.13;12.65;;;;;;;;;;5034066;28;20014;-70
2021/07/19 01:56:03;;;;;;;18.08;15.15;;;;;;;;;;5034160;28;20104;-68
2021/07/19 01:58:30;;;;;;;24.98;15.93;;;;;;;;;;5032801;28;20036;-69
2021/07/19 02:00:57;;;;;;;18.90;15.02;;;;;;;;;;5033523;28;20051;-68
2021/07/19 02:03:23;;;;;;;19.58;14.68;;;;;;;;;;5032260;28;20022;-69
2021/07/19 02:05:51;;;;;;;24.08;16.60;;;;;;;;;;5033566;28;20108;-68
2021/07/19 02:08:17;;;;;;;23.13;16.88;;;;;;;;;;5033507;28;20529;-71
2021/07/19 02:10:47;;;;;;;23.38;16.02;;;;;;;;;;5032572;28;20025;-70
2021/07/19 02:13:14;;;;;;;19.70;16.77;;;;;;;;;;5033821;28;20088;-69
2021/07/19 02:15:41;;;;;;;26.20;18.08;;;;;;;;;;5033770;28;20049;-69
2021/07/19 02:18:08;;;;;;;22.20;17.17;;;;;;;;;;5033704;28;20097;-70
2021/07/19 02:20:35;;;;;;;22.83;17.85;;;;;;;;;;5033641;28;20025;-66
2021/07/19 02:23:05;;;;;;;22.63;17.70;;;;;;;;;;5033699;28;20026;-69
2021/07/19 02:25:32;;;;;;;26.80;19.70;;;;;;;;;;5032307;28;20116;-70
2021/07/19 02:27:58;;;;;;;30.38;19.42;;;;;;;;;;5033224;28;20123;-71
2021/07/19 02:30:25;;;;;;;32.88;20.35;;;;;;;;;;5033578;28;20040;-71
2021/07/19 02:32:53;;;;;;;25.48;19.65;;;;;;;;;;5033052;28;20421;-71
2021/07/19 02:35:20;;;;;;;28.70;20.20;;;;;;;;;;5033483;28;20071;-70
2021/07/19 02:37:48;;;;;;;25.13;20.23;;;;;;;;;;5033470;28;20041;-69
2021/07/19 02:40:17;;;;;;;28.70;21.08;;;;;;;;;;5033331;28;20025;-70
2021/07/19 02:42:44;;;;;;;25.00;19.25;;;;;;;;;;5033332;28;20116;-70
2021/07/19 02:45:11;;;;;;;28.70;21.33;;;;;;;;;;5033329;28;20108;-70
2021/07/19 02:47:38;;;;;;;28.27;21.73;;;;;;;;;;5033337;28;20048;-69
2021/07/19 02:50:05;;;;;;;32.85;23.15;;;;;;;;;;5033231;28;20489;-69
2021/07/19 02:52:33;;;;;;;33.50;21.10;;;;;;;;;;5033170;28;20049;-71
2021/07/19 02:55:00;;;;;;;28.52;20.75;;;;;;;;;;5031859;28;20026;-72
2021/07/19 02:57:27;;;;;;;29.13;21.00;;;;;;;;;;5033123;28;20079;-72
2021/07/19 02:59:53;;;;;;;27.45;19.58;;;;;;;;;;5033052;28;20100;-71
2021/07/19 03:02:23;;;;;;;28.00;19.35;;;;;;;;;;5032868;28;20430;-71
2021/07/19 03:04:52;;;;;;;28.17;20.92;;;;;;;;;;5032066;28;20445;-72
2021/07/19 03:07:19;;;;;;;26.33;19.70;;;;;;;;;;5033094;28;20025;-70
2021/07/19 03:09:49;;;;;;;26.77;20.98;;;;;;;;;;5031736;28;20025;-71
2021/07/19 03:12:19;;;;;;;26.52;19.45;;;;;;;;;;5033239;28;20109;-71
2021/07/19 03:14:48;;;;;;;25.60;18.98;;;;;;;;;;5033045;28;20104;-71
2021/07/19 03:17:15;;;;;;;26.27;19.80;;;;;;;;;;5032965;28;20113;-71
2021/07/19 03:19:43;;;;;;;28.23;20.70;;;;;;;;;;5031476;28;20028;-72
2021/07/19 03:22:11;;;;;;;23.05;19.13;;;;;;;;;;5031673;28;20389;-73
2021/07/19 03:24:37;;;;;;;29.30;19.70;;;;;;;;;;5032928;28;20028;-71
2021/07/19 03:27:04;;;;;;;29.05;19.15;;;;;;;;;;5032686;28;20095;-71
2021/07/19 03:29:31;;;;;;;23.13;18.30;;;;;;;;;;5032502;28;20366;-70
2021/07/19 03:31:58;;;;;;;24.70;19.30;;;;;;;;;;5031564;28;20516;-69
2021/07/19 03:34:25;;;;;;;21.48;17.77;;;;;;;;;;5031486;28;20385;-68
2021/07/19 03:36:54;;;;;;;17.85;15.90;;;;;;;;;;5032778;28;20112;-68
2021/07/19 03:39:21;;;;;;;21.05;16.60;;;;;;;;;;5032755;28;20029;-71
2021/07/19 03:41:49;;;;;;;20.67;16.65;;;;;;;;;;5032724;28;20033;-70
2021/07/19 03:44:16;;;;;;;20.23;16.95;;;;;;;;;;5032739;28;20466;-68
2021/07/19 03:46:42;;;;;;;20.35;16.17;;;;;;;;;;5036160;28;20125;-70
2021/07/19 03:49:08;;;;;;;21.48;15.13;;;;;;;;;;5036587;28;20025;-66
2021/07/19 03:51:35;;;;;;;17.42;14.65;;;;;;;;;;5035225;28;20021;-70
2021/07/19 03:54:01;;;;;;;16.38;14.65;;;;;;;;;;5036499;28;20032;-70
2021/07/19 03:56:28;;;;;;;16.77;14.80;;;;;;;;;;5036364;28;20116;-71
2021/07/19 03:58:56;;;;;;;16.05;14.18;;;;;;;;;;5035065;28;20424;-71
2021/07/19 04:01:22;;;;;;;16.38;13.82;;;;;;;;;;5034968;28;20029;-69
2021/07/19 04:03:52;;;;;;;16.35;13.77;;;;;;;;;;5036042;28;20108;-71
2021/07/19 04:06:19;;;;;;;14.38;12.73;;;;;;;;;;5034992;28;20021;-70
2021/07/19 04:08:46;;;;;;;15.43;13.35;;;;;;;;;;5036486;28;20033;-70
2021/07/19 04:11:16;;;;;;;15.07;12.75;;;;;;;;;;5034891;28;20029;-69
2021/07/19 04:13:42;;;;;;;14.70;12.77;;;;;;;;;;5034784;28;20030;-70
2021/07/19 04:16:09;;;;;;;15.15;12.15;;;;;;;;;;5036039;28;20493;-70
2021/07/19 04:18:36;;;;;;;14.00;12.45;;;;;;;;;;5034650;28;20038;-71
2021/07/19 04:21:03;;;;;;;13.55;12.15;;;;;;;;;;5035980;28;20519;-70
2021/07/19 04:23:31;;;;;;;18.08;12.60;;;;;;;;;;5035944;28;20030;-71
2021/07/19 04:25:57;;;;;;;14.45;12.25;;;;;;;;;;5035875;28;20378;-69
2021/07/19 04:28:24;;;;;;;15.52;13.10;;;;;;;;;;5035860;28;20477;-69
2021/07/19 04:30:51;;;;;;;15.35;13.02;;;;;;;;;;5034588;28;20112;-70
2021/07/19 04:33:18;;;;;;;14.70;12.52;;;;;;;;;;5034431;28;20022;-70
2021/07/19 04:35:48;;;;;;;17.63;12.75;;;;;;;;;;5035427;28;20032;-70
2021/07/19 04:38:18;;;;;;;14.52;12.65;;;;;;;;;;5035569;28;20021;-71
2021/07/19 04:40:48;;;;;;;16.05;12.15;;;;;;;;;;5034285;28;20036;-70
2021/07/19 04:43:15;;;;;;;12.65;11.23;;;;;;;;;;5035203;28;20096;-69
2021/07/19 04:45:41;;;;;;;12.90;11.63;;;;;;;;;;5035495;28;20043;-70
2021/07/19 04:48:08;;;;;;;14.73;12.90;;;;;;;;;;5035483;28;20028;-69
2021/07/19 04:50:34;;;;;;;17.00;12.30;;;;;;;;;;5034149;28;20017;-69
2021/07/19 04:53:00;;;;;;;11.60;10.40;;;;;;;;;;5035651;28;20032;-70
2021/07/19 04:55:27;;;;;;;12.32;11.13;;;;;;;;;;5034050;28;20095;-70
2021/07/19 04:57:54;;;;;;;11.95;10.75;;;;;;;;;;5032395;28;20041;-68
2021/07/19 05:00:20;;;;;;;14.55;10.25;;;;;;;;;;5034844;28;20351;-70
2021/07/19 05:02:48;;;;;;;12.00;10.80;;;;;;;;;;5035179;28;20060;-69
2021/07/19 05:05:16;;;;;;;12.73;10.98;;;;;;;;;;5035383;28;20109;-69
2021/07/19 05:07:44;;;;;;;11.48;10.30;;;;;;;;;;5033410;28;20028;-70
2021/07/19 05:10:10;;;;;;;11.80;10.55;;;;;;;;;;5035353;28;20029;-70
2021/07/19 05:12:37;;;;;;;12.23;10.93;;;;;;;;;;5033714;28;20036;-70
2021/07/19 05:15:04;;;;;;;10.82;9.73;;;;;;;;;;5035006;28;20108;-69
2021/07/19 05:17:30;;;;;;;12.63;11.32;;;;;;;;;;5034842;28;20037;-70
2021/07/19 05:19:57;;;;;;;21.63;13.27;;;;;;;;;;5034633;28;20030;-70
2021/07/19 05:22:23;;;;;;;18.33;15.02;;;;;;;;;;5034560;28;20040;-68
2021/07/19 05:24:55;;;;;;;13.82;12.00;;;;;;;;;;5034796;28;20026;-68
2021/07/19 05:27:21;;;;;;;13.93;11.05;;;;;;;;;;5034446;28;20136;-70
2021/07/19 05:29:50;;;;;;;11.32;10.23;;;;;;;;;;5032897;28;20035;-67
2021/07/19 05:32:16;;;;;;;12.88;10.30;;;;;;;;;;5033218;28;20532;-69
2021/07/19 05:34:43;;;;;;;11.32;10.13;;;;;;;;;;5034253;28;20025;-68
2021/07/19 05:37:09;;;;;;;12.70;10.77;;;;;;;;;;5033239;28;20017;-68
2021/07/19 05:39:35;;;;;;;10.18;9.27;;;;;;;;;;5034554;28;20129;-69
2021/07/19 05:42:01;;;;;;;11.30;10.05;;;;;;;;;;5033143;28;20636;-70
2021/07/19 05:44:28;;;;;;;13.98;11.55;;;;;;;;;;5033002;28;20045;-70
2021/07/19 05:46:54;;;;;;;10.80;9.70;;;;;;;;;;5033027;28;20030;-70
2021/07/19 05:49:20;;;;;;;11.85;10.75;;;;;;;;;;5034235;28;20030;-70
2021/07/19 05:51:47;;;;;;;16.73;12.57;;;;;;;;;;5033444;28;20048;-71
2021/07/19 05:54:13;;;;;;;21.92;16.02;;;;;;;;;;5033894;28;20124;-67
2021/07/19 05:56:39;;;;;;;14.70;12.20;;;;;;;;;;5033815;28;20496;-68
2021/07/19 05:59:05;;;;;;;12.57;11.27;;;;;;;;;;5032631;28;20036;-68
2021/07/19 06:01:31;;;;;;;12.65;11.45;;;;;;;;;;5034073;28;20057;-69
2021/07/19 06:03:59;;;;;;;10.93;9.65;;;;;;;;;;5034283;28;20022;-71
2021/07/19 06:06:26;;;;;;;11.48;10.25;;;;;;;;;;5030030;28;20112;-72
2021/07/19 06:08:52;;;;;;;13.55;10.70;;;;;;;;;;5031803;28;20048;-70
2021/07/19 06:11:18;;;;;;;14.18;11.15;;;;;;;;;;5012446;28;20022;-73
2021/07/19 06:13:45;;;;;;;13.68;10.77;;;;;;;;;;5013465;28;20108;-69
2021/07/19 06:16:11;;;;;;;11.63;10.52;;;;;;;;;;5013825;28;20018;-69
2021/07/19 06:18:37;;;;;;;14.48;10.43;;;;;;;;;;5013700;28;20061;-69
2021/07/19 06:21:04;;;;;;;11.77;10.57;;;;;;;;;;5013744;28;20029;-70
2021/07/19 06:23:30;;;;;;;12.35;10.82;;;;;;;;;;5012538;28;20052;-70
2021/07/19 06:25:56;;;;;;;12.43;11.18;;;;;;;;;;5013782;28;20026;-71
2021/07/19 06:28:22;;;;;;;16.92;11.48;;;;;;;;;;5013783;28;20529;-72
2021/07/19 06:30:51;;;;;;;25.42;16.55;;;;;;;;;;5017857;28;20053;-69
2021/07/19 06:33:17;;;;;;;17.95;12.68;;;;;;;;;;5033443;28;20022;-69
2021/07/19 06:35:43;;;;;;;18.95;15.52;;;;;;;;;;5031853;28;20060;-69
2021/07/19 06:38:09;;;;;;;17.38;13.30;;;;;;;;;;5032458;28;20027;-69
2021/07/19 06:40:35;;;;;;;12.93;11.63;;;;;;;;;;5031384;28;20029;-70
2021/07/19 06:43:02;;;;;;;14.27;11.35;;;;;;;;;;5030597;28;20132;-70
2021/07/19 06:45:28;;;;;;;11.55;10.45;;;;;;;;;;5033143;28;20520;-68
2021/07/19 06:47:54;;;;;;;12.35;10.85;;;;;;;;;;5031743;28;20079;-68
2021/07/19 06:50:20;;;;;;;11.27;10.27;;;;;;;;;;5032711;28;20029;-69
2021/07/19 06:52:46;;;;;;;12.55;11.27;;;;;;;;;;5033069;28;20030;-70
2021/07/19 06:55:13;;;;;;;11.48;10.45;;;;;;;;;;5033006;28;20064;-70
2021/07/19 06:57:39;;;;;;;11.93;10.18;;;;;;;;;;5033120;28;20029;-68
2021/07/19 07:00:06;;;;;;;17.83;10.52;;;;;;;;;;5032825;28;20029;-70
2021/07/19 07:02:33;;;;;;;12.18;10.90;;;;;;;;;;5033203;28;20453;-69
2021/07/19 07:04:59;;;;;;;12.35;10.38;;;;;;;;;;5031579;28;20026;-70
2021/07/19 07:07:25;;;;;;;12.88;11.50;;;;;;;;;;5031596;28;20028;-70
2021/07/19 07:09:51;;;;;;;12.13;10.75;;;;;;;;;;5032910;28;20115;-69
2021/07/19 07:12:17;;;;;;;13.02;10.90;;;;;;;;;;5031638;28;20052;-70
2021/07/19 07:14:43;;;;;;;14.25;12.35;;;;;;;;;;5032751;28;20080;-70
2021/07/19 07:17:10;;;;;;;11.32;9.98;;;;;;;;;;5033054;28;20056;-70
2021/07/19 07:19:36;;;;;;;11.80;10.60;;;;;;;;;;5031704;28;20068;-68
2021/07/19 07:22:02;;;;;;;11.15;10.07;;;;;;;;;;5037140;28;20083;-70
2021/07/19 07:24:28;;;;;;;13.38;10.73;;;;;;;;;;5036905;28;20061;-70
2021/07/19 07:26:55;;;;;;;15.27;10.35;;;;;;;;;;5036563;28;20045;-69
2021/07/19 07:29:21;;;;;;;12.65;9.38;;;;;;;;;;5035478;28;20025;-69
2021/07/19 07:31:47;;;;;;;10.63;9.40;;;;;;;;;;5034794;28;20036;-70
2021/07/19 07:34:13;;;;;;;9.20;8.30;;;;;;;;;;5036247;28;20095;-71
2021/07/19 07:36:40;;;;;;;9.48;8.68;;;;;;;;;;5036579;28;20100;-70
2021/07/19 07:39:07;;;;;;;12.60;9.55;;;;;;;;;;5036008;28;20488;-69
2021/07/19 07:41:33;;;;;;;10.70;9.50;;;;;;;;;;5036663;28;20037;-70
2021/07/19 07:43:59;;;;;;;10.55;9.23;;;;;;;;;;5035320;28;20017;-71
2021/07/19 07:46:25;;;;;;;11.10;8.48;;;;;;;;;;5035230;28;20405;-70
2021/07/19 07:48:52;;;;;;;10.13;9.10;;;;;;;;;;5036461;28;20037;-70
2021/07/19 07:51:18;;;;;;;10.63;8.57;;;;;;;;;;5036540;28;20017;-69
2021/07/19 07:53:45;;;;;;;11.45;9.68;;;;;;;;;;5034196;28;20060;-71
2021/07/19 07:56:11;;;;;;;9.93;8.98;;;;;;;;;;5038588;28;20025;-71
2021/07/19 07:58:38;;;;;;;10.20;9.20;;;;;;;;;;5055954;28;20471;-71
2021/07/19 08:01:05;;;;;;;10.45;9.32;;;;;;;;;;5055055;28;20028;-69
2021/07/19 08:03:31;;;;;;;10.25;8.95;;;;;;;;;;5056235;28;20365;-71
2021/07/19 08:05:57;;;;;;;10.55;8.52;;;;;;;;;;5054942;28;20125;-71
2021/07/19 08:08:23;;;;;;;9.32;8.27;;;;;;;;;;5054862;28;20028;-70
2021/07/19 08:10:50;;;;;;;9.63;8.48;;;;;;;;;;5055814;28;20020;-69
2021/07/19 08:13:16;;;;;;;9.70;8.80;;;;;;;;;;5056063;28;20025;-69
2021/07/19 08:15:47;;;;;;;12.77;9.20;;;;;;;;;;5055868;28;20036;-71
2021/07/19 08:18:13;;;;;;;11.05;9.48;;;;;;;;;;5056050;28;20044;-68
2021/07/19 08:20:40;;;;;;;10.88;9.05;;;;;;;;;;5054470;28;20076;-69
2021/07/19 08:23:06;;;;;;;9.85;8.80;;;;;;;;;;5055848;28;20025;-71
2021/07/19 08:25:32;;;;;;;10.02;8.23;;;;;;;;;;5055195;28;20025;-69
2021/07/19 08:27:58;;;;;;;9.18;8.38;;;;;;;;;;5053984;28;20045;-69
2021/07/19 08:30:24;;;;;;;8.75;7.82;;;;;;;;;;5055529;28;20107;-68
2021/07/19 08:32:51;;;;;;;8.30;7.15;;;;;;;;;;5055593;28;20076;-72
2021/07/19 08:35:17;;;;;;;8.15;7.35;;;;;;;;;;5055470;28;20021;-71
2021/07/19 08:37:46;;;;;;;9.73;7.65;;;;;;;;;;5055485;28;20531;-71
2021/07/19 08:40:13;;;;;;;8.77;7.72;;;;;;;;;;5055440;28;20024;-72
2021/07/19 08:42:39;;;;;;;7.90;7.20;;;;;;;;;;5055669;28;20535;-71
2021/07/19 08:45:07;;;;;;;8.40;7.55;;;;;;;;;;5055379;28;20152;-71
2021/07/19 08:47:40;;;;;;;7.30;6.60;;;;;;;;;;5055097;28;20025;-70
2021/07/19 08:50:08;;;;;;;6.97;6.32;;;;;;;;;;5054091;28;20120;-69
2021/07/19 08:52:34;;;;;;;8.23;7.43;;;;;;;;;;5055233;28;20111;-69
2021/07/19 08:55:01;;;;;;;9.07;8.18;;;;;;;;;;5054882;28;20641;-72
2021/07/19 08:57:28;;;;;;;14.15;8.77;;;;;;;;;;5055461;28;20111;-70
2021/07/19 08:59:55;;;;;;;8.00;7.30;;;;;;;;;;5053729;28;20115;-71
2021/07/19 09:02:21;;;;;;;6.20;5.60;;;;;;;;;;5054927;28;20373;-71
2021/07/19 09:04:48;;;;;;;7.13;5.90;;;;;;;;;;5055300;28;20100;-71
2021/07/19 09:07:14;;;;;;;6.93;6.22;;;;;;;;;;5053787;28;20025;-72
2021/07/19 09:09:57;;;;;;;6.93;6.22;;;;;;;;;;5057161;28;20029;-70
2021/07/19 09:12:37;;;;;;;8.50;7.18;;;;;;;;;;5053910;28;20028;-70
2021/07/19 09:15:04;;;;;;;9.80;7.28;;;;;;;;;;5054914;28;20178;-72
2021/07/19 09:17:30;;;;;;;9.48;7.03;;;;;;;;;;5054870;28;20017;-70
2021/07/19 09:19:57;;;;;;;8.68;7.88;;;;;;;;;;5054663;28;20163;-70
2021/07/19 09:22:29;;;;;;;10.55;8.43;;;;;;;;;;5054793;28;20047;-71
2021/07/19 09:25:05;;;;;;;8.68;7.68;;;;;;;;;;5053181;28;20029;-71
2021/07/19 09:27:31;;;;;;;8.90;6.63;;;;;;;;;;5053036;28;20041;-69
2021/07/19 09:29:58;;;;;;;9.30;8.35;;;;;;;;;;5054356;28;20054;-70
2021/07/19 09:32:24;;;;;;;6.93;6.18;;;;;;;;;;5053229;28;20053;-71
2021/07/19 09:34:50;;;;;;;7.53;5.60;;;;;;;;;;5054232;28;20440;-70
2021/07/19 09:37:17;;;;;;;6.40;5.80;;;;;;;;;;5054401;28;20029;-70
2021/07/19 09:39:45;;;;;;;8.07;7.18;;;;;;;;;;5053067;28;20032;-70
2021/07/19 09:42:13;;;;;;;8.40;7.57;;;;;;;;;;5054365;28;20036;-69
2021/07/19 09:44:39;;;;;;;8.35;7.28;;;;;;;;;;5054134;28;20029;-71
2021/07/19 09:47:07;;;;;;;8.32;7.53;;;;;;;;;;5052954;28;20074;-70
2021/07/19 09:49:35;;;;;;;7.82;6.38;;;;;;;;;;5054237;28;20051;-69
2021/07/19 09:52:02;;;;;;;9.15;6.15;;;;;;;;;;5054127;28;20068;-69
2021/07/19 09:54:36;;;;;;;6.47;5.82;;;;;;;;;;5053925;28;20017;-70
2021/07/19 09:57:02;;;;;;;7.40;6.63;;;;;;;;;;5053954;28;20116;-71
2021/07/19 09:59:28;;;;;;;9.82;7.60;;;;;;;;;;5053938;28;20100;-70
2021/07/19 10:01:55;;;;;;;8.80;6.38;;;;;;;;;;5054072;28;20032;-72
2021/07/19 10:04:21;;;;;;;6.50;5.90;;;;;;;;;;5053954;28;20017;-69
2021/07/19 10:06:56;;;;;;;6.72;6.03;;;;;;;;;;5053895;28;20025;-71
2021/07/19 10:09:22;;;;;;;6.70;6.10;;;;;;;;;;5053581;28;20025;-69
2021/07/19 10:11:53;;;;;;;6.07;5.38;;;;;;;;;;5053906;28;20100;-69
2021/07/19 10:14:29;;;;;;;7.25;6.55;;;;;;;;;;5053820;28;20048;-68
2021/07/19 10:16:57;;;;;;;7.53;5.78;;;;;;;;;;5052298;28;20051;-70
2021/07/19 10:19:24;;;;;;;7.93;6.38;;;;;;;;;;5053559;28;20078;-69
2021/07/19 10:21:51;;;;;;;13.10;6.82;;;;;;;;;;5053700;28;20025;-70
2021/07/19 10:24:17;;;;;;;11.95;7.72;;;;;;;;;;5053580;28;20013;-72
2021/07/19 10:26:45;;;;;;;11.23;7.20;;;;;;;;;;5053417;28;20049;-70
2021/07/19 10:29:13;;;;;;;8.55;6.40;;;;;;;;;;5053581;28;20094;-71
2021/07/19 10:31:39;;;;;;;8.18;6.32;;;;;;;;;;5053509;28;20067;-70
2021/07/19 10:34:06;;;;;;;8.68;7.13;;;;;;;;;;5053661;28;20056;-70
2021/07/19 10:36:33;;;;;;;10.82;6.30;;;;;;;;;;5053621;28;20115;-69
2021/07/19 10:39:05;;;;;;;6.28;5.68;;;;;;;;;;5053207;28;20028;-70
2021/07/19 10:41:31;;;;;;;7.72;6.18;;;;;;;;;;5051831;28;20021;-71
2021/07/19 10:44:05;;;;;;;7.22;5.95;;;;;;;;;;5051957;28;20028;-70
2021/07/19 10:46:32;;;;;;;11.25;5.88;;;;;;;;;;5053265;28;20017;-69
2021/07/19 10:49:04;;;;;;;7.72;7.03;;;;;;;;;;5053198;28;20100;-71
2021/07/19 10:51:38;;;;;;;7.50;6.63;;;;;;;;;;5053259;28;20049;-70
2021/07/19 10:54:18;;;;;;;8.68;7.72;;;;;;;;;;5051786;28;20427;-70
2021/07/19 10:56:44;;;;;;;8.48;7.20;;;;;;;;;;5053164;28;20496;-70
2021/07/19 10:59:10;;;;;;;9.02;6.97;;;;;;;;;;5052958;28;20032;-70
2021/07/19 11:01:37;;;;;;;8.98;7.13;;;;;;;;;;5039773;28;20033;-70
2021/07/19 11:04:14;;;;;;;8.88;6.60;;;;;;;;;;5051699;28;20096;-71
2021/07/19 11:06:47;;;;;;;8.32;6.55;;;;;;;;;;5051809;28;20049;-70
2021/07/19 11:09:14;;;;;;;7.32;6.55;;;;;;;;;;5052758;28;20040;-70
2021/07/19 11:11:42;;;;;;;7.75;6.05;;;;;;;;;;5051654;28;20028;-70
2021/07/19 11:14:12;;;;;;;7.28;6.57;;;;;;;;;;5051990;28;20025;-69
2021/07/19 11:16:39;;;;;;;6.20;5.60;;;;;;;;;;5052828;28;20036;-70
2021/07/19 11:19:06;;;;;;;7.13;6.13;;;;;;;;;;5052521;28;20429;-71
2021/07/19 11:21:32;;;;;;;7.40;5.85;;;;;;;;;;5044379;28;20096;-70
2021/07/19 11:24:15;;;;;;;7.63;6.53;;;;;;;;;;5032355;28;20028;-71
2021/07/19 11:26:52;;;;;;;6.82;5.93;;;;;;;;;;5012704;28;20014;-70
2021/07/19 11:29:28;;;;;;;8.50;6.50;;;;;;;;;;5011687;28;20037;-71
2021/07/19 11:32:23;;;;;;;7.63;6.72;;;;;;;;;;5025815;28;20535;-71
2021/07/19 11:34:50;;;;;;;7.88;6.85;;;;;;;;;;4952226;29;20182;-71
2021/07/19 11:37:17;;;;;;;8.88;6.60;;;;;;;;;;4952384;29;20071;-69
2021/07/19 11:39:45;;;;;;;9.23;6.85;;;;;;;;;;4952167;29;20078;-72
2021/07/19 11:42:12;;;;;;;8.65;7.75;;;;;;;;;;4936222;29;20118;-71
2021/07/19 11:44:39;;;;;;;11.10;6.97;;;;;;;;;;4936131;29;20031;-71
2021/07/19 11:47:06;;;;;;;9.65;7.45;;;;;;;;;;4952223;29;20049;-67
2021/07/19 11:49:33;;;;;;;7.15;6.47;;;;;;;;;;4952198;29;20035;-68
2021/07/19 11:52:00;;;;;;;10.23;6.90;;;;;;;;;;4935852;29;20431;-70
2021/07/19 11:54:26;;;;;;;8.18;7.22;;;;;;;;;;4936130;29;20027;-70
2021/07/19 11:56:53;;;;;;;8.70;7.25;;;;;;;;;;4952043;29;20054;-68
2021/07/19 11:59:26;;;;;;;7.53;6.72;;;;;;;;;;4952004;29;20547;-67
2021/07/19 12:01:56;;;;;;;7.60;6.90;;;;;;;;;;4952282;29;20125;-70
2021/07/19 12:04:23;;;;;;;9.02;7.68;;;;;;;;;;4935898;29;20405;-70
2021/07/19 12:06:52;;;;;;;10.13;7.07;;;;;;;;;;4937879;29;20027;-69
2021/07/19 12:09:20;;;;;;;9.32;7.72;;;;;;;;;;4939540;29;20042;-67
2021/07/19 12:11:55;;;;;;;12.35;8.10;;;;;;;;;;5014916;28;20061;-67
2021/07/19 12:14:22;;;;;;;8.52;7.78;;;;;;;;;;5036206;28;20055;-67
2021/07/19 12:16:48;;;;;;;10.50;8.23;;;;;;;;;;5035747;28;20025;-68
2021/07/19 12:19:18;;;;;;;9.95;8.25;;;;;;;;;;5033634;28;20580;-68
2021/07/19 12:21:46;;;;;;;8.60;7.72;;;;;;;;;;5034918;28;20822;-66
2021/07/19 12:24:13;;;;;;;11.10;7.82;;;;;;;;;;5034487;28;20021;-68
2021/07/19 12:26:44;;;;;;;9.77;8.20;;;;;;;;;;5035359;28;20056;-68
2021/07/19 12:29:15;;;;;;;10.32;9.30;;;;;;;;;;5035883;28;20248;-70
2021/07/19 12:31:47;;;;;;;13.90;8.98;;;;;;;;;;5034669;28;20393;-70
2021/07/19 12:34:20;;;;;;;9.13;8.25;;;;;;;;;;5035793;28;20049;-68
2021/07/19 12:36:47;;;;;;;9.85;8.90;;;;;;;;;;5035669;28;20079;-69
2021/07/19 12:39:15;;;;;;;9.73;8.15;;;;;;;;;;5035560;28;20096;-67
2021/07/19 12:41:42;;;;;;;9.85;8.27;;;;;;;;;;5035630;28;20144;-67
2021/07/19 12:44:09;;;;;;;10.30;8.30;;;30.50;78.40;;;;;;5034042;28;20037;-70
2021/07/19 12:46:41;;;;;;;9.13;8.32;;;31.10;78.50;;;;;;5034024;28;20025;-70
2021/07/19 12:49:07;;;;;;;8.77;7.82;;;31.90;77.90;;;;;;5033917;28;20037;-68
2021/07/19 12:51:35;;;;;;;10.40;8.25;;;32.80;76.50;;;;;;5040617;28;20449;-69
2021/07/19 12:54:06;;;;;;;9.13;8.35;;;32.60;73.40;;;;;;5052706;28;20036;-70
2021/07/19 12:56:34;;;;;;;9.75;8.15;;;33.10;73.90;;;;;;5036980;28;20048;-68
2021/07/19 12:59:08;;;;;;;8.90;8.07;;;32.30;72.30;;;;;;5033933;28;20033;-69
2021/07/19 13:01:36;;;;;;;10.65;8.50;;;32.20;74.50;;;;;;5035074;28;20030;-68
2021/07/19 13:04:07;;;;;;;10.65;8.90;;;32.00;73.70;;;;;;5035132;28;20029;-69
2021/07/19 13:06:37;;;;;;;9.95;7.82;;;;;;;;;;5035238;28;20029;-68
2021/07/19 13:09:19;;;;;;;11.50;8.05;;;;;;;;;;5033738;28;20034;-68
2021/07/19 13:11:46;;;;;;;9.23;8.32;;;;;;;;;;5033747;28;20026;-70
2021/07/19 13:14:12;;;;;;;9.35;8.45;;;;;;;;;;5032996;28;20022;-67
2021/07/19 13:16:39;;;;;;;9.05;8.15;;;;;;;;;;5034421;28;20032;-69
2021/07/19 13:19:05;;;;;;;10.95;8.60;;;;;;;;;;5033872;28;20018;-69
2021/07/19 13:21:31;;;;;;;9.23;8.27;;;;;;;;;;5034779;28;20021;-68
2021/07/19 13:23:58;;;;;;;10.30;9.20;;;;;;;;;;5035915;28;20358;-66
2021/07/19 13:26:29;;;;;;;9.70;8.63;;;;;;;;;;5034413;28;20047;-69
2021/07/19 13:29:04;;;;;;;9.48;8.02;;;;;;;;;;5033839;28;20041;-66
2021/07/19 13:31:30;;;;;;;10.48;8.35;;;;;;;;;;5034200;28;20351;-67
2021/07/19 13:33:56;;;;;;;15.43;9.73;;;;;;;;;;5031565;28;20056;-68
2021/07/19 13:36:29;;;;;;;9.95;8.95;;;;;;;;;;5032812;28;20017;-70
2021/07/19 13:38:56;;;;;;;12.52;9.88;;;;;;;;;;5033968;28;20065;-69
2021/07/19 13:41:23;;;;;;;10.45;8.65;;;;;;;;;;5032762;28;20026;-69
2021/07/19 13:43:49;;;;;;;9.63;8.52;;;;;;;;;;5033886;28;20109;-71
2021/07/19 13:46:15;;;;;;;12.48;9.52;;;;;;;;;;5033640;28;20048;-70
2021/07/19 13:48:42;;;;;;;9.90;8.90;;;;;;;;;;5033739;28;20026;-70
2021/07/19 13:51:08;;;;;;;9.05;7.93;;;;;;;;;;5033314;28;20025;-70
2021/07/19 13:53:35;;;;;;;12.48;9.77;;;;;;;;;;5033784;28;20381;-70
2021/07/19 13:56:02;;;;;;;9.23;8.30;;;;;;;;;;5033771;28;20032;-68
2021/07/19 13:58:29;;;;;;;9.93;8.27;;;;;;;;;;5032447;28;20071;-69
2021/07/19 14:00:56;;;;;;;8.10;7.20;;;;;;;;;;5033613;28;20083;-68
2021/07/19 14:03:22;;;;;;;11.85;7.60;;;;;;;;;;5033512;28;20030;-69
2021/07/19 14:05:49;;;;;;;11.43;7.85;;;;;;;;;;5032218;28;20022;-68
2021/07/19 14:08:16;;;;;;;9.00;8.10;;;;;;;;;;5033498;28;20108;-68
2021/07/19 14:10:42;;;;;;;9.50;8.60;;;;;;;;;;5032815;28;20025;-67
2021/07/19 14:13:09;;;;;;;8.95;8.02;;;;;;;;;;5032296;28;20028;-68
2021/07/19 14:15:35;;;;;;;7.88;7.07;;;;;;;;;;5031971;28;20025;-70
2021/07/19 14:18:02;;;;;;;10.02;7.47;;;;;;;;;;5045348;28;20029;-68
2021/07/19 14:20:28;;;;;;;9.63;7.40;;;;;;;;;;5053390;28;20028;-67
2021/07/19 14:22:56;;;;;;;8.45;7.55;;;;;;;;;;5053407;28;20033;-68
2021/07/19 14:25:23;;;;;;;9.27;7.38;;;;;;;;;;5044341;28;20489;-68